createdAt,value
2022-11-14T00:01:18.245Z,46.05
2022-11-14T00:04:51.480Z,53.10
2022-11-14T00:08:28.414Z,42.85
2022-11-14T00:17:59.551Z,51.20
2022-11-14T00:40:00.823Z,53.28
2022-11-14T00:43:31.358Z,63.30
2022-11-14T00:53:01.712Z,47.38
2022-11-14T00:56:28.615Z,41.40
2022-11-14T00:59:59.601Z,44.53
2022-11-14T01:03:29.762Z,49.15
2022-11-14T01:06:59.903Z,49.88
2022-11-14T01:10:30.795Z,45.63
2022-11-14T01:14:01.049Z,46.13
2022-11-14T01:17:32.222Z,41.95
2022-11-14T01:21:02.532Z,40.80
2022-11-14T01:24:33.823Z,47.58
2022-11-14T01:28:04.525Z,42.00
2022-11-14T01:31:35.177Z,43.23
2022-11-14T01:35:07.970Z,42.30
2022-11-14T01:38:38.461Z,41.73
2022-11-14T01:42:09.146Z,37.35
2022-11-14T01:46:02.404Z,39.85
2022-11-14T01:55:36.289Z,37.33
2022-11-14T02:05:11.071Z,35.80
2022-11-14T02:08:42.711Z,40.83
2022-11-14T02:12:17.899Z,37.33
2022-11-14T02:18:48.320Z,33.98
2022-11-14T02:22:20.353Z,43.25
2022-11-14T02:25:50.539Z,33.85
2022-11-14T02:29:21.111Z,34.63
2022-11-14T02:33:09.893Z,34.93
2022-11-14T02:36:25.184Z,32.35
2022-11-14T02:39:55.554Z,35.25
2022-11-14T02:43:25.706Z,46.80
2022-11-14T02:46:56.096Z,34.80
2022-11-14T02:50:30.981Z,33.08
2022-11-14T02:54:02.445Z,33.20
2022-11-14T02:57:33.043Z,31.60
2022-11-14T03:01:20.361Z,28.30
2022-11-14T03:04:40.050Z,29.83
2022-11-14T03:08:10.881Z,31.53
2022-11-14T03:11:41.783Z,28.93
2022-11-14T03:15:15.035Z,26.23
2022-11-14T03:18:46.924Z,26.48
2022-11-14T03:25:23.041Z,24.70
2022-11-14T03:28:56.499Z,24.90
2022-11-14T03:32:27.551Z,29.60
2022-11-14T03:35:59.362Z,27.28
2022-11-14T03:39:30.094Z,25.63
2022-11-14T03:43:00.153Z,24.55
2022-11-14T03:46:23.309Z,22.60
2022-11-14T03:49:54.048Z,25.13
2022-11-14T03:53:24.459Z,25.38
2022-11-14T03:56:54.779Z,21.53
2022-11-14T04:00:27.685Z,21.35
2022-11-14T04:03:58.470Z,23.73
2022-11-14T04:07:28.854Z,25.60
2022-11-14T04:17:53.674Z,26.45
2022-11-14T04:21:24.511Z,24.18
2022-11-14T04:24:54.554Z,34.08
2022-11-14T04:28:24.963Z,24.65
2022-11-14T05:03:22.670Z,33.15
2022-11-14T05:06:52.860Z,27.80
2022-11-14T05:10:24.035Z,30.18
2022-11-14T05:13:55.346Z,31.43
2022-11-14T05:17:22.948Z,24.23
2022-11-14T05:20:53.271Z,25.25
2022-11-14T05:24:23.701Z,22.68
2022-11-14T05:27:54.275Z,27.05
2022-11-14T05:31:24.509Z,23.85
2022-11-14T05:34:55.261Z,26.13
2022-11-14T05:44:25.771Z,20.23
2022-11-14T07:08:06.532Z,45.43
2022-11-14T07:20:37.265Z,25.05
2022-11-14T07:24:08.008Z,34.95
2022-11-14T07:27:38.562Z,26.33
2022-11-14T07:31:12.435Z,65.78
2022-11-14T07:34:42.767Z,45.93
2022-11-14T07:38:13.323Z,29.95
2022-11-14T07:41:43.664Z,26.25
2022-11-14T07:45:16.519Z,26.43
2022-11-14T07:48:48.105Z,21.23
2022-11-14T07:52:18.545Z,23.80
2022-11-14T07:55:49.555Z,21.43
2022-11-14T07:59:20.165Z,47.05
2022-11-14T08:02:52.403Z,24.33
2022-11-14T08:06:24.122Z,24.28
2022-11-14T08:09:54.813Z,21.18
2022-11-14T08:13:32.115Z,22.53
2022-11-14T08:16:57.766Z,22.58
2022-11-14T08:20:28.625Z,21.43
2022-11-14T08:23:58.616Z,64.95
2022-11-14T08:27:29.333Z,33.10
2022-11-14T08:31:05.683Z,35.85
2022-11-14T08:34:37.415Z,26.48
2022-11-14T08:38:08.367Z,24.60
2022-11-14T08:41:38.865Z,24.40
2022-11-14T08:45:10.619Z,24.98
2022-11-14T08:48:41.249Z,21.95
2022-11-14T08:52:16.510Z,22.83
2022-11-14T08:55:49.158Z,21.05
2022-11-14T08:59:19.592Z,21.50
2022-11-14T09:02:49.931Z,22.80
2022-11-14T09:06:20.497Z,33.33
2022-11-14T09:09:51.076Z,37.05
2022-11-14T09:13:22.353Z,32.25
2022-11-14T09:16:54.595Z,31.43
2022-11-14T09:20:31.065Z,36.88
2022-11-14T09:24:01.676Z,34.50
2022-11-14T09:27:32.860Z,31.98
2022-11-14T09:31:10.285Z,35.68
2022-11-14T09:34:42.606Z,31.55
2022-11-14T09:38:15.313Z,32.68
2022-11-14T09:41:58.798Z,33.43
2022-11-14T09:45:29.651Z,29.28
2022-11-14T09:49:02.465Z,44.68
2022-11-14T09:52:43.272Z,51.95
2022-11-14T09:56:19.101Z,45.45
2022-11-14T09:59:49.643Z,32.03
2022-11-14T10:03:26.098Z,29.38
2022-11-14T10:07:04.290Z,30.90
2022-11-14T10:10:50.117Z,28.05
2022-11-14T10:15:08.955Z,32.80
2022-11-14T10:18:58.751Z,29.93
2022-11-14T10:22:45.497Z,28.80
2022-11-14T10:26:24.603Z,30.35
2022-11-14T10:30:16.387Z,30.10
2022-11-14T10:47:50.871Z,31.15
2022-11-14T10:51:28.916Z,28.68
2022-11-14T10:55:06.482Z,31.00
2022-11-14T10:58:47.755Z,26.23
2022-11-14T11:02:09.175Z,27.48
2022-11-14T11:05:45.807Z,31.50
2022-11-14T11:09:51.041Z,32.97
2022-11-14T11:13:36.788Z,32.00
2022-11-14T11:17:33.310Z,31.55
2022-11-14T11:21:14.412Z,41.10
2022-11-14T11:24:45.454Z,39.73
2022-11-14T11:28:20.871Z,42.08
2022-11-14T11:32:00.260Z,32.75
2022-11-14T11:35:30.784Z,28.63
2022-11-14T11:39:02.920Z,32.73
2022-11-14T11:46:21.359Z,29.35
2022-11-14T11:49:54.956Z,28.88
2022-11-14T11:53:30.902Z,27.50
2022-11-14T11:57:06.099Z,29.70
2022-11-14T12:00:37.374Z,31.98
2022-11-14T12:04:08.300Z,31.48
2022-11-14T12:07:47.794Z,32.03
2022-11-14T12:11:23.100Z,33.15
2022-11-14T12:15:15.150Z,34.50
2022-11-14T12:19:25.061Z,32.48
2022-11-14T12:27:11.104Z,68.30
2022-11-14T12:30:45.850Z,42.43
2022-11-14T12:34:26.737Z,31.95
2022-11-14T12:37:59.658Z,30.55
2022-11-14T12:41:35.149Z,31.23
2022-11-14T12:45:05.431Z,32.73
2022-11-14T12:48:43.012Z,35.75
2022-11-14T12:52:38.068Z,32.98
2022-11-14T12:56:21.312Z,34.35
2022-11-14T13:00:07.414Z,34.95
2022-11-14T13:03:56.674Z,32.98
2022-11-14T13:07:42.948Z,35.23
2022-11-14T13:12:13.580Z,37.98
2022-11-14T13:16:10.218Z,37.30
2022-11-14T13:19:57.415Z,43.90
2022-11-14T13:24:04.780Z,35.23
2022-11-14T13:28:06.020Z,31.35
2022-11-14T13:31:27.485Z,31.85
2022-11-14T13:35:03.375Z,34.63
2022-11-14T13:39:26.468Z,33.25
2022-11-14T13:43:03.644Z,27.80
2022-11-14T13:46:48.065Z,83.03
2022-11-14T13:50:22.907Z,45.98
2022-11-14T13:53:53.596Z,35.60
2022-11-14T13:57:34.643Z,34.68
2022-11-14T14:01:16.207Z,33.03
2022-11-14T14:04:58.442Z,31.43
2022-11-14T14:08:45.119Z,32.38
2022-11-14T14:12:38.985Z,46.53
2022-11-14T14:16:16.575Z,39.53
2022-11-14T14:19:59.335Z,36.60
2022-11-14T14:23:41.509Z,35.75
2022-11-14T14:27:18.478Z,35.93
2022-11-14T14:31:04.098Z,36.60
2022-11-14T14:34:37.381Z,34.80
2022-11-14T14:38:09.536Z,39.60
2022-11-14T14:41:40.886Z,46.40
2022-11-14T14:45:18.514Z,42.68
2022-11-14T14:52:36.031Z,39.65
2022-11-14T14:56:11.437Z,41.38
2022-11-14T14:59:42.448Z,43.25
2022-11-14T15:03:16.263Z,42.40
2022-11-14T15:06:51.445Z,44.68
2022-11-14T15:10:33.854Z,47.20
2022-11-14T15:14:06.648Z,41.53
2022-11-14T15:17:37.308Z,45.78
2022-11-14T15:21:32.394Z,44.00
2022-11-14T15:25:25.568Z,47.15
2022-11-14T15:28:56.002Z,52.33
2022-11-14T15:32:29.693Z,66.73
2022-11-14T15:36:13.871Z,63.30
2022-11-14T15:39:45.411Z,44.30
2022-11-14T15:43:50.603Z,45.93
2022-11-14T15:47:28.132Z,50.98
2022-11-14T15:50:59.442Z,46.88
2022-11-14T15:54:37.682Z,45.80
2022-11-14T15:58:27.040Z,43.65
2022-11-14T16:01:41.579Z,46.35
2022-11-14T16:05:18.157Z,52.63
2022-11-14T16:08:48.780Z,46.93
2022-11-14T16:12:19.468Z,49.90
2022-11-14T16:15:50.116Z,48.85
2022-11-14T16:19:22.866Z,49.40
2022-11-14T16:22:56.662Z,49.35
2022-11-14T16:26:27.369Z,46.08
2022-11-14T16:29:57.659Z,49.15
2022-11-14T16:33:28.531Z,50.85
2022-11-14T16:37:07.186Z,53.93
2022-11-14T16:40:37.591Z,50.45
2022-11-14T16:44:08.189Z,50.63
2022-11-14T16:47:38.814Z,52.83
2022-11-14T16:51:40.927Z,49.43
2022-11-14T16:54:43.041Z,48.53
2022-11-14T16:58:14.676Z,54.55
2022-11-14T17:01:46.119Z,50.13
2022-11-14T17:05:17.378Z,51.80
2022-11-14T17:08:48.109Z,52.30
2022-11-14T17:12:18.693Z,54.18
2022-11-14T17:15:49.501Z,54.18
2022-11-14T17:19:19.742Z,57.70
2022-11-14T17:22:49.928Z,55.90
2022-11-14T17:26:21.406Z,57.98
2022-11-14T17:29:51.847Z,59.03
2022-11-14T17:33:21.959Z,56.68
2022-11-14T17:36:52.550Z,58.00
2022-11-14T17:40:23.673Z,57.45
2022-11-14T17:44:00.211Z,55.13
2022-11-14T17:47:31.271Z,57.05
2022-11-14T17:51:03.667Z,56.50
2022-11-14T17:54:35.746Z,61.35
2022-11-14T17:58:06.364Z,62.80
2022-11-14T18:01:36.699Z,64.60
2022-11-14T18:05:07.240Z,63.60
2022-11-14T18:08:37.365Z,64.83
2022-11-14T18:12:07.495Z,62.25
2022-11-14T18:15:38.603Z,60.95
2022-11-14T18:19:08.971Z,71.05
2022-11-14T18:22:39.105Z,70.98
2022-11-14T18:26:19.514Z,63.00
2022-11-14T18:29:50.302Z,60.53
2022-11-14T18:33:20.842Z,61.13
2022-11-14T18:36:51.700Z,67.13
2022-11-14T18:40:23.079Z,66.60
2022-11-14T18:43:55.576Z,64.63
2022-11-14T18:47:26.273Z,71.85
2022-11-14T18:50:56.154Z,67.88
2022-11-14T18:54:26.721Z,71.53
2022-11-14T18:57:57.193Z,67.35
2022-11-14T19:01:32.107Z,69.35
2022-11-14T19:05:02.893Z,69.83
2022-11-14T19:08:32.969Z,68.78
2022-11-14T19:12:17.736Z,59.78
2022-11-14T19:15:48.593Z,67.15
2022-11-14T19:19:19.353Z,83.97
2022-11-14T19:22:49.425Z,100.65
2022-11-14T19:26:20.082Z,65.45
2022-11-14T19:29:50.874Z,70.88
2022-11-14T19:33:21.084Z,65.38
2022-11-14T19:37:00.335Z,60.83
2022-11-14T19:40:26.341Z,89.38
2022-11-14T19:43:56.858Z,72.28
2022-11-14T19:47:27.123Z,63.90
2022-11-14T19:51:07.350Z,62.93
2022-11-14T19:54:38.016Z,117.38
2022-11-14T19:58:08.435Z,69.85
2022-11-14T20:01:42.163Z,80.95
2022-11-14T20:05:15.316Z,61.25
2022-11-14T20:08:45.861Z,66.38
2022-11-14T20:12:16.369Z,80.65
2022-11-14T20:15:46.936Z,104.55
2022-11-14T20:19:18.208Z,71.18
2022-11-14T20:22:48.653Z,97.95
2022-11-14T20:26:20.718Z,63.50
2022-11-14T20:29:51.079Z,87.28
2022-11-14T20:33:21.694Z,101.43
2022-11-14T20:40:24.971Z,69.73
2022-11-14T20:43:57.609Z,54.23
2022-11-14T20:47:28.539Z,52.68
2022-11-14T20:51:01.383Z,71.25
2022-11-14T20:54:31.848Z,78.80
2022-11-14T20:58:02.500Z,67.90
2022-11-14T21:01:33.345Z,53.75
2022-11-14T21:05:03.889Z,73.03
2022-11-14T21:08:34.863Z,63.88
2022-11-14T21:12:05.350Z,50.03
2022-11-14T21:15:36.632Z,69.10
2022-11-14T21:19:08.319Z,46.35
2022-11-14T21:22:38.394Z,95.45
2022-11-14T21:26:17.291Z,46.18
2022-11-14T21:29:47.679Z,50.83
2022-11-14T21:33:17.781Z,56.20
2022-11-14T21:36:48.573Z,78.40
2022-11-14T21:40:20.607Z,50.03
2022-11-14T21:43:53.366Z,74.83
2022-11-14T21:47:23.707Z,63.50
2022-11-14T21:50:54.411Z,41.58
2022-11-14T21:54:24.701Z,44.75
2022-11-14T21:57:59.166Z,69.08
2022-11-14T22:01:40.707Z,90.58
2022-11-14T22:05:12.228Z,73.40
2022-11-14T22:08:42.572Z,101.98
2022-11-14T22:12:13.319Z,59.50
2022-11-14T22:15:44.252Z,49.18
2022-11-14T22:19:14.604Z,64.48
2022-11-14T22:22:45.024Z,83.42
2022-11-14T22:26:16.841Z,52.13
2022-11-14T22:29:46.965Z,46.25
2022-11-14T22:33:17.495Z,49.45
2022-11-14T22:36:48.188Z,129.05
2022-11-14T22:40:20.700Z,79.55
2022-11-14T22:43:51.526Z,93.45
2022-11-14T22:47:21.740Z,55.05
2022-11-14T22:50:52.269Z,85.83
2022-11-14T22:54:23.380Z,51.28
2022-11-14T22:57:54.051Z,73.50
2022-11-14T23:01:28.146Z,54.38
2022-11-14T23:04:58.436Z,87.80
2022-11-14T23:08:28.880Z,135.13
2022-11-14T23:11:59.503Z,50.88
2022-11-14T23:15:29.722Z,50.75
2022-11-14T23:19:02.841Z,62.68
2022-11-14T23:22:33.318Z,46.38
2022-11-14T23:26:08.049Z,47.48
2022-11-14T23:29:38.322Z,72.15
2022-11-14T23:33:09.160Z,42.80
2022-11-14T23:36:40.182Z,65.43
2022-11-14T23:40:13.609Z,69.68
2022-11-14T23:43:44.138Z,48.90
2022-11-14T23:47:14.501Z,171.33
2022-11-14T23:50:44.789Z,88.97
2022-11-14T23:54:15.424Z,85.13
2022-11-14T23:57:45.891Z,59.08
